Time;durP1;ratioP1;P1;durP2;ratioP2;P2;SDS_P1;SDS_P2;PMS_P1;PMS_P2;Temp;Humidity;BMP_temperature;BMP_pressure;BME280_temperature;BME280_humidity;BME280_pressure;Samples;Min_cycle;Max_cycle;Signal;HPM_P1;HPM_P2
2022/08/14 00:00:44;;;;;;;;;;;;;;;20.13;100.00;99021.66;1694540;84;21781;-71
2022/08/14 00:03:21;;;;;;;;;;;;;;;20.11;100.00;99019.27;1694677;84;20087;-71
2022/08/14 00:05:48;;;;;;;;;;;;;;;20.09;100.00;99020.84;1694641;84;20098;-71
2022/08/14 00:08:15;;;;;;;;;;;;;;;20.07;100.00;99020.44;1694597;84;20111;-71
2022/08/14 00:10:41;;;;;;;;;;;;;;;20.05;100.00;99017.25;1694542;84;20167;-71
2022/08/14 00:13:08;;;;;;;;;;;;;;;20.05;100.00;99015.86;1694560;84;21142;-72
2022/08/14 00:15:39;;;;;;;;;;;;;;;20.03;100.00;99007.89;1694654;84;20078;-71
2022/08/14 00:18:07;;;;;;;;;;;;;;;19.99;100.00;99009.06;1694525;84;20157;-70
2022/08/14 00:20:36;;;;;;;;;;;;;;;19.97;100.00;99012.24;1694610;84;20095;-70
2022/08/14 00:23:03;;;;;;;;;;;;;;;19.96;100.00;99005.66;1694818;84;20118;-71
2022/08/14 00:25:30;;;;;;;;;;;;;;;19.94;100.00;99008.05;1694613;84;21176;-70
2022/08/14 00:27:57;;;;;;;;;;;;;;;19.92;100.00;99016.80;1694891;84;20409;-72
2022/08/14 00:30:23;;;;;;;;;;;;;;;19.90;100.00;99014.98;1694559;84;20110;-72
2022/08/14 00:32:49;;;;;;;;;;;;;;;19.86;100.00;99007.22;1694579;84;20135;-72
2022/08/14 00:35:16;;;;;;;;;;;;;;;19.83;100.00;99012.77;1694879;84;20098;-72
2022/08/14 00:37:43;;;;;;;;;;;;;;;19.79;100.00;99007.98;1694505;84;21742;-72
2022/08/14 00:40:11;;;;;;;;;;;;;;;19.76;100.00;99007.36;1680671;84;20157;-70
2022/08/14 00:42:38;;;;;;;;;;;;;;;19.74;100.00;99007.55;1677366;84;20547;-69
2022/08/14 00:45:06;;;;;;;;;;;;;;;19.71;100.00;99011.91;1679108;85;20090;-69
2022/08/14 00:47:34;;;;;;;;;;;;;;;19.69;100.00;99002.34;1679183;85;20122;-69
2022/08/14 00:50:01;;;;;;;;;;;;;;;19.69;100.00;99003.73;1679101;85;21110;-69
2022/08/14 00:52:27;;;;;;;;;;;;;;;19.66;100.00;98998.36;1678934;85;20458;-69
2022/08/14 00:54:55;;;;;;;;;;;;;;;19.68;100.00;99001.55;1678977;85;20121;-69
2022/08/14 00:57:23;;;;;;;;;;;;;;;19.69;100.00;99008.72;1679007;85;20085;-69
2022/08/14 00:59:50;;;;;;;;;;;;;;;19.73;100.00;99009.53;1679168;85;20163;-69
2022/08/14 01:02:18;;;;;;;;;;;;;;;19.75;100.00;99007.75;1678971;85;21214;-69
2022/08/14 01:04:45;;;;;;;;;;;;;;;19.74;100.00;99010.33;1679139;85;20090;-69
2022/08/14 01:07:16;;;;;;;;;;;;;;;19.77;100.00;99014.53;1679290;85;20472;-69
2022/08/14 01:09:41;;;;;;;;;;;;;;;19.78;100.00;99014.73;1678952;85;20074;-69
2022/08/14 01:12:08;;;;;;;;;;;;;;;19.80;100.00;99014.34;1657864;85;20436;-69
2022/08/14 01:14:35;;;;;;;;;;;;;;;19.84;100.00;99012.38;1679098;85;21754;-69
2022/08/14 01:17:02;;;;;;;;;;;;;;;19.87;100.00;99014.38;1678891;85;20122;-69
2022/08/14 01:22:14;;;;;;;;;;;;;;;19.91;100.00;99017.98;1679093;85;20133;-69
2022/08/14 01:24:41;;;;;;;;;;;;;;;19.91;100.00;99017.19;1679012;85;20094;-70
2022/08/14 01:27:17;;;;;;;;;;;;;;;19.91;100.00;99015.79;1679101;85;21259;-69
2022/08/14 01:29:45;;;;;;;;;;;;;;;19.92;100.00;99018.78;1679088;85;20121;-69
2022/08/14 01:32:12;;;;;;;;;;;;;;;19.93;100.00;99017.59;1679066;85;20429;-69
2022/08/14 01:34:38;;;;;;;;;;;;;;;19.93;100.00;99015.60;1679100;85;20074;-71
2022/08/14 01:37:06;;;;;;;;;;;;;;;19.93;100.00;99021.77;1679301;85;36226;-72
2022/08/14 01:39:33;;;;;;;;;;;;;;;19.93;100.00;99017.59;1678873;85;21162;-71
2022/08/14 01:41:59;;;;;;;;;;;;;;;19.92;100.00;99018.19;1678994;85;20085;-70
2022/08/14 01:44:29;;;;;;;;;;;;;;;19.90;100.00;99010.02;1678565;85;20125;-71
2022/08/14 01:46:58;;;;;;;;;;;;;;;19.87;100.00;99006.02;1679079;85;20085;-71
2022/08/14 01:49:24;;;;;;;;;;;;;;;19.87;100.00;99008.02;1678751;85;20147;-71
2022/08/14 01:51:55;;;;;;;;;;;;;;;19.83;100.00;99008.59;1679105;85;21148;-71
2022/08/14 01:54:20;;;;;;;;;;;;;;;19.79;100.00;99008.56;1678926;85;20121;-71
2022/08/14 01:56:51;;;;;;;;;;;;;;;19.76;100.00;99004.58;1678884;85;20086;-71
2022/08/14 01:59:28;;;;;;;;;;;;;;;19.70;100.00;98998.38;1658667;85;20102;-71
2022/08/14 02:01:53;;;;;;;;;;;;;;;19.65;100.00;98995.37;1678899;85;20143;-71
2022/08/14 02:04:20;;;;;;;;;;;;;;;19.62;100.00;98996.77;1679056;85;21144;-71
2022/08/14 02:06:49;;;;;;;;;;;;;;;19.58;100.00;98999.53;1678875;85;20122;-70
2022/08/14 02:09:18;;;;;;;;;;;;;;;19.55;100.00;99006.47;1679108;85;20125;-70
2022/08/14 02:11:45;;;;;;;;;;;;;;;19.50;100.00;99000.64;1679035;85;20469;-71
2022/08/14 02:14:12;;;;;;;;;;;;;;;19.46;100.00;99002.02;1679153;85;20425;-71
2022/08/14 02:16:42;;;;;;;;;;;;;;;19.42;100.00;99004.57;1678976;85;21208;-70
2022/08/14 02:19:13;;;;;;;;;;;;;;;19.39;100.00;99002.56;1679012;85;20086;-70
2022/08/14 02:21:44;;;;;;;;;;;;;;;19.38;100.00;99007.92;1678998;85;20122;-70
2022/08/14 02:24:11;;;;;;;;;;;;;;;19.34;100.00;99005.11;1678951;85;20097;-72
2022/08/14 02:26:40;;;;;;;;;;;;;;;19.31;100.00;99003.70;1678964;85;20122;-71
2022/08/14 02:29:10;;;;;;;;;;;;;;;19.30;100.00;99009.05;1679085;85;21172;-71
2022/08/14 02:31:39;;;;;;;;;;;;;;;19.27;100.00;99005.06;1677625;85;20126;-71
2022/08/14 02:34:19;;;;;;;;;;;;;;;19.27;100.00;99018.17;1678819;85;20178;-71
2022/08/14 02:36:47;;;;;;;;;;;;;;;19.26;100.00;99018.77;1678955;85;20085;-71
2022/08/14 02:39:14;;;;;;;;;;;;;;;19.24;100.00;99018.95;1678901;85;20146;-71
2022/08/14 02:41:42;;;;;;;;;;;;;;;19.22;100.00;99015.75;1679091;85;21858;-71
2022/08/14 02:44:10;;;;;;;;;;;;;;;19.20;100.00;99016.14;1678876;85;20102;-71
2022/08/14 02:46:37;;;;;;;;;;;;;;;19.19;100.00;99022.09;1686495;85;20086;-71
2022/08/14 02:49:05;;;;;;;;;;;;;;;19.18;100.00;99023.27;1686767;85;20141;-71
2022/08/14 02:51:33;;;;;;;;;;;;;;;19.17;100.00;99021.67;1686126;85;20132;-72
2022/08/14 02:54:00;;;;;;;;;;;;;;;19.14;100.00;99024.05;1685364;85;22134;-71
2022/08/14 02:56:26;;;;;;;;;;;;;;;19.12;100.00;99027.00;1686929;85;20318;-72
2022/08/14 02:58:55;;;;;;;;;;;;;;;19.11;100.00;99028.98;1686770;85;20534;-72
2022/08/14 03:01:22;;;;;;;;;;;;;;;19.10;100.00;99023.81;1686799;85;20451;-72
2022/08/14 03:03:48;;;;;;;;;;;;;;;19.10;100.00;99027.39;1687068;85;20125;-72
2022/08/14 03:06:15;;;;;;;;;;;;;;;19.10;100.00;99023.81;1687041;85;21818;-72
2022/08/14 03:08:42;;;;;;;;;;;;;;;19.11;100.00;99017.86;1686739;85;20086;-72
2022/08/14 03:11:10;;;;;;;;;;;;;;;19.12;100.00;99022.83;1686836;85;20121;-71
2022/08/14 03:13:40;;;;;;;;;;;;;;;19.12;100.00;99027.80;1682242;85;20254;-71
2022/08/14 03:16:09;;;;;;;;;;;;;;;19.12;100.00;99023.63;1681883;85;20097;-71
2022/08/14 03:18:41;;;;;;;;;;;;;;;19.18;100.00;99024.66;1682062;85;21270;-72
2022/08/14 03:21:10;;;;;;;;;;;;;;;19.20;100.00;99020.91;1681850;85;20098;-72
2022/08/14 03:23:39;;;;;;;;;;;;;;;19.23;100.00;99022.92;1682057;85;20114;-71
2022/08/14 03:26:07;;;;;;;;;;;;;;;19.25;100.00;99017.77;1681716;85;20119;-71
2022/08/14 03:28:34;;;;;;;;;;;;;;;19.27;100.00;99020.96;1682062;85;20173;-71
2022/08/14 03:31:00;;;;;;;;;;;;;;;19.31;100.00;99020.39;1681932;85;21160;-71
2022/08/14 03:33:27;;;;;;;;;;;;;;;19.34;100.00;99012.66;1682109;85;20465;-71
2022/08/14 03:35:54;;;;;;;;;;;;;;;19.39;100.00;99013.69;1682073;85;20145;-71
2022/08/14 03:38:20;;;;;;;;;;;;;;;19.43;100.00;99010.34;1682733;84;20101;-71
2022/08/14 03:40:49;;;;;;;;;;;;;;;19.46;100.00;99011.76;1703892;84;20086;-71
2022/08/14 03:43:15;;;;;;;;;;;;;;;19.49;100.00;99014.36;1704784;83;21160;-71
2022/08/14 03:45:43;;;;;;;;;;;;;;;19.53;100.00;99011.63;1700267;84;20453;-71
2022/08/14 03:48:18;;;;;;;;;;;;;;;19.54;100.00;99011.24;1694764;84;20122;-71
2022/08/14 03:50:44;;;;;;;;;;;;;;;19.56;100.00;99011.66;1694740;84;20130;-70
2022/08/14 03:53:12;;;;;;;;;;;;;;;19.59;100.00;99014.25;1694867;84;20143;-70
2022/08/14 03:55:39;;;;;;;;;;;;;;;19.62;100.00;99006.52;1694821;84;21277;-70
2022/08/14 03:58:06;;;;;;;;;;;;;;;19.65;100.00;99008.49;1694738;84;20121;-70
2022/08/14 04:00:35;;;;;;;;;;;;;;;19.67;100.00;99008.30;1694749;84;20134;-70
2022/08/14 04:03:05;;;;;;;;;;;;;;;19.71;100.00;99005.54;1694605;84;20492;-70
2022/08/14 04:05:33;;;;;;;;;;;;;;;19.74;100.00;99004.17;1694779;84;20424;-70
2022/08/14 04:08:00;;;;;;;;;;;;;;;19.76;100.00;98999.01;1694547;84;21102;-70
2022/08/14 04:10:27;;;;;;;;;;;;;;;19.78;100.00;99001.41;1694645;84;20134;-70
2022/08/14 04:12:58;;;;;;;;;;;;;;;19.81;100.00;98991.47;1694667;84;20484;-70
2022/08/14 04:15:23;;;;;;;;;;;;;;;19.83;100.00;98991.88;1694424;84;20726;-70
2022/08/14 04:17:50;;;;;;;;;;;;;;;19.86;100.00;98998.06;1694526;84;20126;-71
2022/08/14 04:20:16;;;;;;;;;;;;;;;19.90;100.00;98991.91;1694637;84;22004;-70
2022/08/14 04:22:44;;;;;;;;;;;;;;;19.92;99.07;98990.92;1694458;84;20099;-69
2022/08/14 04:25:11;;;;;;;;;;;;;;;19.95;98.28;98988.16;1694727;84;20119;-68
2022/08/14 04:27:38;;;;;;;;;;;;;;;20.01;97.96;98987.19;1694604;84;20430;-70
2022/08/14 04:30:06;;;;;;;;;;;;;;;20.05;97.32;98977.65;1693807;84;20161;-69
2022/08/14 04:32:33;;;;;;;;;;;;;;;20.09;96.76;98986.81;1694660;84;21127;-69
2022/08/14 04:35:02;;;;;;;;;;;;;;;20.13;96.91;98984.05;1694515;84;20526;-70
2022/08/14 04:45:43;;;;;;;;;;;;;;;20.28;97.18;98986.25;1680282;84;21107;-72
2022/08/14 04:48:14;;;;;;;;;;;;;;;20.31;97.04;98986.86;1686798;85;20074;-71
2022/08/14 04:50:46;;;;;;;;;;;;;;;20.32;96.95;98991.23;1686936;85;20098;-73
2022/08/14 04:53:15;;;;;;;;;;;;;;;20.38;96.78;98998.86;1686881;85;20086;-72
2022/08/14 04:55:46;;;;;;;;;;;;;;;20.43;97.03;99001.26;1681775;85;20153;-73
2022/08/14 04:58:11;;;;;;;;;;;;;;;20.50;96.43;99002.47;1680063;85;21155;-72
2022/08/14 05:00:38;;;;;;;;;;;;;;;20.52;96.30;99003.67;1682067;85;20105;-74
2022/08/14 05:03:06;;;;;;;;;;;;;;;20.54;94.27;99010.24;1682029;85;20125;-69
2022/08/14 05:05:33;;;;;;;;;;;;;;;20.55;95.47;99006.27;1681590;85;20114;-69
2022/08/14 05:08:07;;;;;;;;;;;;;;;20.54;95.85;99002.67;1682393;85;20396;-69
2022/08/14 05:10:35;;;;;;;;;;;;;;;20.56;96.42;99011.44;1691628;84;21241;-69
2022/08/14 05:13:04;;;;;;;;;;;;;;;20.59;95.42;99012.64;1704922;83;20122;-70
2022/08/14 05:15:34;;;;;;;;;;;;;;;20.57;95.58;99010.84;1704780;84;20145;-71
2022/08/14 05:18:12;;;;;;;;;;;;;;;20.55;95.14;99009.85;1704760;84;20086;-69
2022/08/14 05:20:41;;;;;;;;;;;;;;;20.54;95.54;99015.82;1704910;84;20417;-69
2022/08/14 05:23:07;;;;;;;;;;;;;;;20.52;95.47;99016.22;1704727;84;21168;-69
2022/08/14 05:25:35;;;;;;;;;;;;;;;20.52;96.17;99020.39;1704595;84;20390;-68
2022/08/14 05:28:19;;;;;;;;;;;;;;;20.53;95.11;99023.39;1704782;83;20464;-67
2022/08/14 05:30:46;;;;;;;;;;;;;;;20.55;95.88;99018.81;1704731;84;20443;-71
2022/08/14 05:33:15;;;;;;;;;;;;;;;20.57;96.11;99015.03;1704758;83;20122;-75
2022/08/14 05:35:43;;;;;;;;;;;;;;;20.58;96.06;99005.47;1704437;83;21159;-76
2022/08/14 05:38:13;;;;;;;;;;;;;;;20.60;96.63;98999.70;1704593;84;20102;-72
2022/08/14 05:40:40;;;;;;;;;;;;;;;20.65;97.36;98999.91;1718691;83;20173;-73
2022/08/14 05:43:07;;;;;;;;;;;;;;;20.74;97.21;98994.74;1721629;83;20179;-72
2022/08/14 05:45:34;;;;;;;;;;;;;;;20.84;97.09;98996.72;1723251;82;20490;-72
2022/08/14 05:48:01;;;;;;;;;;;;;;;20.99;95.97;98989.15;1735211;82;21137;-76
2022/08/14 05:50:28;;;;;;;;;;;;;;;21.15;94.71;98985.95;1735008;82;20183;-76
2022/08/14 05:52:55;;;;;;;;;;;;;;;21.30;93.88;98991.75;1735332;82;20115;-76
2022/08/14 05:55:21;;;;;;;;;;;;;;;21.43;91.87;98984.53;1735118;81;20151;-76
2022/08/14 05:57:57;;;;;;;;;;;;;;;21.51;92.08;98984.70;1733306;82;20183;-76
2022/08/14 06:00:26;;;;;;;;;;;;;;;21.59;91.86;98980.70;1735146;81;21102;-74
2022/08/14 06:02:55;;;;;;;;;;;;;;;21.65;90.86;98981.88;1734959;82;20151;-75
2022/08/14 06:05:22;;;;;;;;;;;;;;;21.65;91.10;98976.89;1735167;82;20112;-74
2022/08/14 06:07:49;;;;;;;;;;;;;;;21.55;90.66;98979.12;1735154;82;20123;-74
2022/08/14 06:10:16;;;;;;;;;;;;;;;21.47;91.39;98974.75;1706719;82;20486;-75
2022/08/14 06:12:43;;;;;;;;;;;;;;;21.38;91.20;98970.97;1735370;82;21823;-76
2022/08/14 06:15:10;;;;;;;;;;;;;;;21.33;91.62;98975.59;1735032;82;20112;-78
2022/08/14 06:17:46;;;;;;;;;;;;;;;21.28;91.86;98967.63;1735076;82;20112;-70
2022/08/14 06:20:13;;;;;;;;;;;;;;;21.27;92.30;98982.78;1734346;82;20200;-69
2022/08/14 06:22:40;;;;;;;;;;;;;;;21.23;91.75;98987.58;1735133;82;20123;-76
2022/08/14 06:25:10;;;;;;;;;;;;;;;21.19;92.07;98995.13;1735210;82;20862;-72
2022/08/14 06:27:38;;;;;;;;;;;;;;;21.18;91.86;98993.53;1735063;82;20148;-73
2022/08/14 06:30:06;;;;;;;;;;;;;;;21.16;92.66;98987.55;1735109;82;20575;-74
2022/08/14 06:32:33;;;;;;;;;;;;;;;21.15;93.00;98990.14;1735239;82;20490;-73
2022/08/14 06:35:00;;;;;;;;;;;;;;;21.16;92.89;98989.74;1735122;81;20192;-73
2022/08/14 06:37:26;;;;;;;;;;;;;;;21.17;93.35;98984.95;1735450;82;21731;-73
2022/08/14 06:39:53;;;;;;;;;;;;;;;21.20;93.78;98982.16;1724326;81;20121;-73
2022/08/14 06:42:19;;;;;;;;;;;;;;;21.24;94.28;98981.59;1709491;83;20412;-72
2022/08/14 06:44:46;;;;;;;;;;;;;;;21.30;94.40;98984.17;1709140;84;20086;-75
2022/08/14 06:47:12;;;;;;;;;;;;;;;21.36;94.18;98978.38;1701055;84;20090;-74
2022/08/14 06:49:39;;;;;;;;;;;;;;;21.42;94.35;98994.90;1697090;83;21506;-75
2022/08/14 06:52:05;;;;;;;;;;;;;;;21.52;94.06;98993.28;1696939;84;20095;-72
2022/08/14 06:54:34;;;;;;;;;;;;;;;21.61;93.62;99002.05;1697060;83;20102;-72
2022/08/14 06:57:00;;;;;;;;;;;;;;;21.72;92.76;99007.61;1697087;84;20157;-70
2022/08/14 06:59:27;;;;;;;;;;;;;;;21.79;90.47;99006.78;1697114;84;20457;-75
2022/08/14 07:07:23;;;;;;;;;;;;;;;22.01;91.39;99004.91;1697331;83;20098;-75
2022/08/14 07:09:51;;;;;;;;;;;;;;;22.05;90.47;98999.31;1676661;84;20126;-76
2022/08/14 07:12:18;;;;;;;;;;;;;;;22.11;90.64;98994.09;1697266;84;20118;-75
2022/08/14 07:14:45;;;;;;;;;;;;;;;22.15;90.04;98998.47;1697361;84;21625;-74
2022/08/14 07:17:12;;;;;;;;;;;;;;;22.21;90.08;99009.42;1696595;84;20102;-78
2022/08/14 07:19:38;;;;;;;;;;;;;;;22.29;87.25;99002.59;1697226;84;20143;-76
2022/08/14 07:22:05;;;;;;;;;;;;;;;22.37;87.56;99003.36;1696990;84;20179;-73
2022/08/14 07:24:33;;;;;;;;;;;;;;;22.40;85.65;99004.73;1697134;84;20126;-73
2022/08/14 07:26:59;;;;;;;;;;;;;;;22.44;85.91;99006.11;1696915;83;21137;-77
2022/08/14 07:29:26;;;;;;;;;;;;;;;22.49;86.38;99004.89;1696998;84;20107;-71
2022/08/14 07:31:53;;;;;;;;;;;;;;;22.56;86.69;99008.41;1697012;84;20090;-80
2022/08/14 07:34:19;;;;;;;;;;;;;;;22.64;86.03;99004.97;1696684;84;20086;-81
2022/08/14 07:36:47;;;;;;;;;;;;;;;22.72;86.07;99012.11;1697162;84;20145;-81
2022/08/14 07:39:13;;;;;;;;;;;;;;;22.79;86.10;99014.09;1696932;83;21775;-76
2022/08/14 07:41:40;;;;;;;;;;;;;;;22.88;86.40;99013.83;1679286;84;20090;-75
2022/08/14 07:44:07;;;;;;;;;;;;;;;22.99;86.05;99022.94;1679054;84;20094;-79
2022/08/14 07:46:33;;;;;;;;;;;;;;;23.15;86.63;99015.39;1678896;85;20445;-72
2022/08/14 07:49:00;;;;;;;;;;;;;;;23.39;86.18;99023.38;1678761;85;20095;-85
2022/08/14 07:51:27;;;;;;;;;;;;;;;23.63;83.04;99021.58;1678874;85;21731;-85
2022/08/14 07:53:54;;;;;;;;;;;;;;;23.76;82.84;99026.02;1657089;84;20463;-82
2022/08/14 07:56:20;;;;;;;;;;;;;;;23.84;81.99;99031.73;1659042;86;20130;-82
2022/08/14 07:58:47;;;;;;;;;;;;;;;23.88;82.32;99019.88;1658750;86;20138;-78
2022/08/14 08:01:13;;;;;;;;;;;;;;;23.90;80.22;99016.84;1658750;86;20153;-77
2022/08/14 08:03:39;;;;;;;;;;;;;;;24.01;80.44;99013.92;1658309;86;21073;-75
2022/08/14 08:06:07;;;;;;;;;;;;;;;24.20;81.26;99013.89;1657904;86;20117;-79
2022/08/14 08:08:33;;;;;;;;;;;;;;;24.52;80.87;99014.27;1658700;86;20117;-82
2022/08/14 08:11:00;;;;;;;;;;;;;;;24.83;78.20;99002.99;1658660;86;20216;-78
2022/08/14 08:13:26;;;;;;;;;;;;;;;24.92;77.09;99006.03;1630260;86;20129;-76
2022/08/14 08:15:55;;;;;;;;;;;;;;;24.87;76.13;99004.50;1651531;86;21159;-75
2022/08/14 08:18:22;;;;;;;;;;;;;;;24.76;76.30;99005.30;1658593;85;20262;-76
2022/08/14 08:20:50;;;;;;;;;;;;;;;24.70;76.83;99006.99;1659037;85;20209;-74
2022/08/14 08:23:18;;;;;;;;;;;;;;;24.71;77.77;99009.98;1657906;85;20100;-73
2022/08/14 08:25:47;;;;;;;;;;;;;;;24.78;78.08;99018.91;1654007;85;20977;-75
2022/08/14 08:28:16;;;;;;;;;;;;;;;24.89;77.80;99017.50;1656652;86;21097;-74
2022/08/14 08:30:51;;;;;;;;;;;;;;;25.17;78.62;99020.49;1658247;86;20129;-74
2022/08/14 08:33:19;;;;;;;;;;;;;;;25.78;79.40;99005.36;1658227;86;20190;-85
2022/08/14 08:35:46;;;;;;;;;;;;;;;26.51;77.92;99006.45;1645390;84;20172;-74
2022/08/14 08:38:16;;;;;;;;;;;;;;;27.22;75.21;99008.96;1646813;85;20124;-77
2022/08/14 08:40:45;;;;;;;;;;;;;;;27.74;70.95;99004.39;1658336;84;21249;-77
2022/08/14 08:43:32;;;;;;;;;;;;;;;28.02;69.34;98995.14;1656029;84;20440;-81
2022/08/14 08:46:07;;;;;;;;;;;;;;;28.07;67.47;98994.59;1611073;88;20109;-79
2022/08/14 08:48:48;;;;;;;;;;;;;;;27.92;65.82;98999.84;1681974;84;20117;-76
2022/08/14 08:51:27;;;;;;;;;;;;;;;27.83;66.15;99010.98;1683309;84;20126;-81
2022/08/14 08:53:59;;;;;;;;;;;;;;;27.85;68.26;99004.89;1686540;83;21256;-81
2022/08/14 08:56:36;;;;;;;;;;;;;;;28.02;65.37;99002.19;1687253;84;20094;-76
2022/08/14 08:59:06;;;;;;;;;;;;;;;28.16;64.21;99001.78;1683260;84;20112;-80
2022/08/14 09:01:34;;;;;;;;;;;;;;;28.28;63.10;98999.47;1652989;85;20167;-84
2022/08/14 09:04:04;;;;;;;;;;;;;;;28.36;63.26;99005.04;1674493;85;20140;-77
2022/08/14 09:06:31;;;;;;;;;;;;;;;28.47;61.53;99004.09;1674693;84;21159;-78
2022/08/14 09:08:58;;;;;;;;;;;;;;;28.57;60.86;98998.75;1653675;85;20127;-78
2022/08/14 09:11:25;;;;;;;;;;;;;;;28.58;62.91;98996.09;1674795;84;20158;-80
2022/08/14 09:13:52;;;;;;;;;;;;;;;28.63;61.71;98995.53;1674983;84;20115;-76
2022/08/14 09:16:20;;;;;;;;;;;;;;;28.74;62.41;99000.84;1674747;85;20235;-75
2022/08/14 09:18:47;;;;;;;;;;;;;;;28.91;63.05;98997.45;1674644;85;21235;-76
2022/08/14 09:21:14;;;;;;;;;;;;;;;29.08;60.72;98993.09;1674970;85;20470;-80
2022/08/14 09:23:41;;;;;;;;;;;;;;;29.18;59.88;98997.59;1675025;85;20152;-76
2022/08/14 09:26:07;;;;;;;;;;;;;;;29.30;58.38;98979.82;1674661;85;20115;-75
2022/08/14 09:28:33;;;;;;;;;;;;;;;29.40;58.15;98992.80;1689246;84;20103;-77
2022/08/14 09:31:00;;;;;;;;;;;;;;;29.44;58.61;98990.67;1693527;84;21139;-85
2022/08/14 09:33:30;;;;;;;;;;;;;;;29.51;57.49;98988.19;1682055;84;20118;-82
2022/08/14 09:36:21;;;;;;;;;;;;;;;29.57;57.42;98982.91;1676913;85;20086;-76
2022/08/14 09:39:11;;;;;;;;;;;;;;;29.66;56.99;98986.44;1676270;85;20086;-77
2022/08/14 09:41:50;;;;;;;;;;;;;;;29.73;54.91;98987.59;1676889;85;20098;-85
2022/08/14 09:44:21;;;;;;;;;;;;;;;29.56;54.62;98989.81;1675372;85;21824;-72
2022/08/14 09:46:56;;;;;;;;;;;;;;;29.38;56.49;98985.40;1678242;84;20165;-72
2022/08/14 09:49:33;;;;;;;;;;;;;;;29.28;55.69;98982.31;1694666;83;20093;-73
2022/08/14 09:52:09;;;;;;;;;;;;;;;29.11;56.56;98973.19;1688499;85;20118;-72
2022/08/14 09:54:37;;;;;;;;;;;;;;;29.14;57.56;98977.94;1689084;85;20448;-72
2022/08/14 09:57:05;;;;;;;;;;;;;;;29.41;56.50;98973.80;1688901;85;22316;-72
2022/08/14 09:59:48;;;;;;;;;;;;;;;29.73;54.92;98983.98;1688596;85;20090;-73
2022/08/14 10:02:20;;;;;;;;;;;;;;;30.00;53.86;98974.95;1688486;85;20483;-72
2022/08/14 10:05:08;;;;;;;;;;;;;;;30.05;53.08;98972.28;1687706;85;20171;-72
2022/08/14 10:07:37;;;;;;;;;;;;;;;30.01;55.65;98973.06;1686403;85;20605;-71
2022/08/14 10:10:05;;;;;;;;;;;;;;;30.05;54.38;98972.91;1688342;85;21175;-71
2022/08/14 10:12:47;;;;;;;;;;;;;;;30.05;55.76;98973.70;1692224;84;20465;-72
2022/08/14 10:15:17;;;;;;;;;;;;;;;30.03;55.53;98974.02;1706387;84;20097;-71
2022/08/14 10:17:45;;;;;;;;;;;;;;;30.08;54.78;98968.53;1705854;84;20097;-74
2022/08/14 10:20:13;;;;;;;;;;;;;;;30.08;53.75;98974.81;1706792;84;20452;-70
2022/08/14 10:22:41;;;;;;;;;;;;;;;29.97;53.62;98979.45;1706762;84;21537;-70
2022/08/14 10:25:13;;;;;;;;;;;;;;;29.75;55.41;98986.52;1706685;84;20448;-71
2022/08/14 10:27:40;;;;;;;;;;;;;;;29.62;55.15;98982.16;1707223;83;20086;-70
2022/08/14 10:30:15;;;;;;;;;;;;;;;29.62;55.54;98986.40;1706974;84;20453;-70
2022/08/14 10:32:43;;;;;;;;;;;;;;;29.83;55.15;98980.77;1706820;83;20179;-74
2022/08/14 10:35:10;;;;;;;;;;;;;;;30.05;54.84;98981.39;1707015;83;21100;-76
2022/08/14 10:37:38;;;;;;;;;;;;;;;30.26;53.38;98984.05;1706687;83;20138;-76
2022/08/14 10:40:06;;;;;;;;;;;;;;;30.26;52.91;98984.84;1706694;83;20132;-73
2022/08/14 10:42:37;;;;;;;;;;;;;;;30.15;51.55;98992.31;1706897;84;20293;-70
2022/08/14 10:45:23;;;;;;;;;;;;;;;29.99;53.11;98981.20;1705909;83;20098;-71
2022/08/14 10:47:50;;;;;;;;;;;;;;;29.78;52.37;98981.98;1705999;84;21169;-71
2022/08/14 10:50:17;;;;;;;;;;;;;;;29.56;54.08;98986.98;1694630;84;20205;-71
2022/08/14 10:52:45;;;;;;;;;;;;;;;29.49;54.63;98981.58;1693612;83;20122;-71
2022/08/14 10:55:13;;;;;;;;;;;;;;;29.52;53.76;98974.22;1694380;84;20821;-71
2022/08/14 10:57:49;;;;;;;;;;;;;;;29.58;56.19;98978.83;1694426;84;20098;-72
2022/08/14 11:00:20;;;;;;;;;;;;;;;29.81;55.32;98983.89;1690844;83;21155;-77
2022/08/14 11:03:01;;;;;;;;;;;;;;;30.01;54.43;98980.77;1687576;84;20097;-78
2022/08/14 11:05:40;;;;;;;;;;;;;;;30.07;53.87;98982.52;1689185;83;20118;-72
2022/08/14 11:08:07;;;;;;;;;;;;;;;30.07;54.14;98979.68;1693920;84;20198;-72
2022/08/14 11:10:42;;;;;;;;;;;;;;;30.00;53.49;98987.05;1694337;84;20086;-78
2022/08/14 11:13:11;;;;;;;;;;;;;;;29.90;54.31;98988.20;1693564;84;21311;-71
2022/08/14 11:15:38;;;;;;;;;;;;;;;29.75;55.14;99002.70;1694274;84;20457;-74
2022/08/14 11:18:04;;;;;;;;;;;;;;;29.64;55.06;99000.88;1694088;84;20202;-77
2022/08/14 11:20:31;;;;;;;;;;;;;;;29.50;55.79;98995.87;1690250;84;20109;-78
2022/08/14 11:22:59;;;;;;;;;;;;;;;29.52;55.86;98993.39;1688038;85;20460;-75
2022/08/14 11:25:30;;;;;;;;;;;;;;;29.75;56.83;98996.42;1687891;85;21116;-77
2022/08/14 11:27:58;;;;;;;;;;;;;;;29.95;55.19;98994.69;1687563;84;20174;-80
2022/08/14 11:30:27;;;;;;;;;;;;;;;30.08;56.29;98989.75;1687692;85;20153;-78
2022/08/14 11:32:55;;;;;;;;;;;;;;;30.34;55.84;98993.22;1687837;85;20459;-72
2022/08/14 11:35:25;;;;;;;;;;;;;;;30.80;54.60;98986.37;1687871;85;20170;-73
2022/08/14 11:37:58;;;;;;;;;;;;;;;31.24;53.47;98987.59;1688088;85;21540;-74
2022/08/14 11:40:26;;;;;;;;;;;;;;;31.53;51.69;98985.91;1687644;85;20161;-76
2022/08/14 11:42:54;;;;;;;;;;;;;;;31.59;49.95;98990.95;1687182;84;20102;-82
2022/08/14 11:45:23;;;;;;;;;;;;;;;31.50;51.18;98990.32;1676633;85;20086;-76
2022/08/14 11:47:53;;;;;;;;;;;;;;;31.52;50.96;98986.38;1676644;85;20102;-74
2022/08/14 11:50:25;;;;;;;;;;;;;;;31.56;50.96;98993.32;1678111;85;21274;-82
2022/08/14 11:52:52;;;;;;;;;;;;;;;31.72;51.00;98989.58;1658070;84;20688;-76
2022/08/14 11:55:19;;;;;;;;;;;;;;;31.88;49.19;98985.61;1657916;85;20085;-82
2022/08/14 11:57:46;;;;;;;;;;;;;;;31.90;46.80;98985.92;1678692;85;20101;-73
2022/08/14 12:00:20;;;;;;;;;;;;;;;31.82;48.58;98984.66;1635664;85;20425;-74
2022/08/14 12:02:51;;;;;;;;;;;;;;;31.67;48.99;98985.92;1678696;85;21260;-75
2022/08/14 12:05:31;;;;;;;;;;;;;;;31.53;49.17;98987.33;1678397;84;20137;-75
2022/08/14 12:08:00;;;;;;;;;;;;;;;31.30;48.90;98986.52;1678876;85;20110;-73
2022/08/14 12:10:28;;;;;;;;;;;;;;;30.96;47.58;98988.16;1678895;85;20111;-74
2022/08/14 12:12:56;;;;;;;;;;;;;;;30.78;49.06;98981.16;1679033;85;20459;-80
2022/08/14 12:15:34;;;;;;;;;;;;;;;30.69;49.83;98979.71;1678677;85;21232;-75
2022/08/14 12:18:00;;;;;;;;;;;;;;;30.54;48.52;98984.36;1678716;85;20483;-73
2022/08/14 12:20:37;;;;;;;;;;;;;;;30.37;51.35;98978.77;1678903;85;20098;-73
2022/08/14 12:23:05;;;;;;;;;;;;;;;30.22;49.86;98970.03;1678790;85;20087;-72
2022/08/14 12:25:33;;;;;;;;;;;;;;;30.07;51.06;98966.95;1678873;85;20090;-73
2022/08/14 12:28:07;;;;;;;;;;;;;;;30.17;51.91;98962.92;1678712;85;21204;-77
2022/08/14 12:30:39;;;;;;;;;;;;;;;30.43;50.48;98961.33;1657980;85;20086;-78
2022/08/14 12:33:28;;;;;;;;;;;;;;;30.51;49.24;98956.97;1678556;85;20154;-75
2022/08/14 12:35:57;;;;;;;;;;;;;;;30.41;51.27;98958.97;1678822;85;20122;-77
2022/08/14 12:38:32;;;;;;;;;;;;;;;30.27;51.59;98953.07;1678911;85;20157;-77
2022/08/14 12:41:00;;;;;;;;;;;;;;;30.23;51.31;98954.63;1678331;85;21235;-72
2022/08/14 12:43:28;;;;;;;;;;;;;;;30.15;51.19;98962.59;1684476;83;20167;-72
2022/08/14 12:45:54;;;;;;;;;;;;;;;30.07;51.67;98948.55;1696568;83;20155;-75
2022/08/14 12:48:22;;;;;;;;;;;;;;;30.17;51.53;98948.77;1693638;84;20114;-75
2022/08/14 12:50:51;;;;;;;;;;;;;;;30.11;49.90;98948.42;1688055;83;20629;-79
2022/08/14 12:53:21;;;;;;;;;;;;;;;30.04;53.22;98945.23;1687285;84;21867;-85
2022/08/14 12:55:59;;;;;;;;;;;;;;;30.12;52.30;98940.87;1667629;85;20101;-76
2022/08/14 12:58:28;;;;;;;;;;;;;;;30.15;52.50;98942.78;1687220;85;20491;-77
2022/08/14 13:00:55;;;;;;;;;;;;;;;30.11;51.86;98921.53;1687276;85;20787;-74
2022/08/14 13:03:36;;;;;;;;;;;;;;;30.04;52.31;98928.91;1687788;84;20149;-78
2022/08/14 13:06:02;;;;;;;;;;;;;;;29.96;52.43;98920.49;1687123;85;21223;-76
2022/08/14 13:08:29;;;;;;;;;;;;;;;29.94;53.44;98917.34;1687160;84;20117;-81